sensor_id;sensor_type;location;lat;lon;timestamp;temperature;humidity
61392;DHT22;47261;52.892;5.738;2022-09-29T00:01:48;9.00;93.50
61392;DHT22;47261;52.892;5.738;2022-09-29T00:04:14;8.90;93.50
61392;DHT22;47261;52.892;5.738;2022-09-29T00:06:39;8.90;93.50
61392;DHT22;47261;52.892;5.738;2022-09-29T00:09:05;8.90;93.60
61392;DHT22;47261;52.892;5.738;2022-09-29T00:11:31;8.80;93.60
61392;DHT22;47261;52.892;5.738;2022-09-29T00:13:56;8.80;93.70
61392;DHT22;47261;52.892;5.738;2022-09-29T00:16:23;8.80;93.80
61392;DHT22;47261;52.892;5.738;2022-09-29T00:18:48;8.80;93.80
61392;DHT22;47261;52.892;5.738;2022-09-29T00:21:17;8.80;93.90
61392;DHT22;47261;52.892;5.738;2022-09-29T00:23:46;8.80;93.90
61392;DHT22;47261;52.892;5.738;2022-09-29T00:26:16;8.80;94.00
61392;DHT22;47261;52.892;5.738;2022-09-29T00:28:55;8.80;94.00
61392;DHT22;47261;52.892;5.738;2022-09-29T00:31:22;8.80;94.00
61392;DHT22;47261;52.892;5.738;2022-09-29T00:33:49;8.80;94.00
61392;DHT22;47261;52.892;5.738;2022-09-29T00:36:17;8.80;94.00
61392;DHT22;47261;52.892;5.738;2022-09-29T00:38:44;8.80;94.00
61392;DHT22;47261;52.892;5.738;2022-09-29T00:41:18;8.80;94.00
61392;DHT22;47261;52.892;5.738;2022-09-29T00:49:17;8.70;93.90
61392;DHT22;47261;52.892;5.738;2022-09-29T00:51:58;8.70;93.90
61392;DHT22;47261;52.892;5.738;2022-09-29T00:54:25;8.70;93.90
61392;DHT22;47261;52.892;5.738;2022-09-29T00:56:54;8.70;93.90
61392;DHT22;47261;52.892;5.738;2022-09-29T00:59:30;8.60;93.90
61392;DHT22;47261;52.892;5.738;2022-09-29T01:01:57;8.60;93.90
61392;DHT22;47261;52.892;5.738;2022-09-29T01:04:23;8.50;93.90
61392;DHT22;47261;52.892;5.738;2022-09-29T01:06:52;8.60;94.00
61392;DHT22;47261;52.892;5.738;2022-09-29T01:09:22;8.60;94.00
61392;DHT22;47261;52.892;5.738;2022-09-29T01:11:49;8.50;94.00
61392;DHT22;47261;52.892;5.738;2022-09-29T01:14:20;8.50;94.00
61392;DHT22;47261;52.892;5.738;2022-09-29T01:16:46;8.50;94.00
61392;DHT22;47261;52.892;5.738;2022-09-29T01:19:18;8.50;94.00
61392;DHT22;47261;52.892;5.738;2022-09-29T01:24:53;8.50;94.10
61392;DHT22;47261;52.892;5.738;2022-09-29T01:30:14;8.50;94.10
61392;DHT22;47261;52.892;5.738;2022-09-29T01:38:13;8.50;94.20
61392;DHT22;47261;52.892;5.738;2022-09-29T01:40:54;8.50;94.20
61392;DHT22;47261;52.892;5.738;2022-09-29T01:46:16;8.50;94.10
61392;DHT22;47261;52.892;5.738;2022-09-29T01:48:49;8.50;94.10
61392;DHT22;47261;52.892;5.738;2022-09-29T01:51:20;8.50;94.10
61392;DHT22;47261;52.892;5.738;2022-09-29T01:53:50;8.50;94.10
61392;DHT22;47261;52.892;5.738;2022-09-29T01:56:26;8.40;94.10
61392;DHT22;47261;52.892;5.738;2022-09-29T01:59:01;8.40;94.10
61392;DHT22;47261;52.892;5.738;2022-09-29T02:01:33;8.40;94.10
61392;DHT22;47261;52.892;5.738;2022-09-29T02:04:04;8.40;94.20
61392;DHT22;47261;52.892;5.738;2022-09-29T02:06:42;8.40;94.20
61392;DHT22;47261;52.892;5.738;2022-09-29T02:09:14;8.40;94.20
61392;DHT22;47261;52.892;5.738;2022-09-29T02:11:42;8.40;94.30
61392;DHT22;47261;52.892;5.738;2022-09-29T02:14:15;8.40;94.30
61392;DHT22;47261;52.892;5.738;2022-09-29T02:17:02;8.50;94.40
61392;DHT22;47261;52.892;5.738;2022-09-29T02:19:33;8.50;94.40
61392;DHT22;47261;52.892;5.738;2022-09-29T02:22:01;8.50;94.30
61392;DHT22;47261;52.892;5.738;2022-09-29T02:24:26;8.50;94.30
61392;DHT22;47261;52.892;5.738;2022-09-29T02:26:52;8.60;94.40
61392;DHT22;47261;52.892;5.738;2022-09-29T02:29:18;8.60;94.30
61392;DHT22;47261;52.892;5.738;2022-09-29T02:31:46;8.60;94.30
61392;DHT22;47261;52.892;5.738;2022-09-29T02:34:18;8.50;94.30
61392;DHT22;47261;52.892;5.738;2022-09-29T02:44:42;8.50;94.20
61392;DHT22;47261;52.892;5.738;2022-09-29T02:55:06;8.40;94.30
61392;DHT22;47261;52.892;5.738;2022-09-29T03:00:09;8.40;94.40
61392;DHT22;47261;52.892;5.738;2022-09-29T03:02:40;8.30;94.40
61392;DHT22;47261;52.892;5.738;2022-09-29T03:05:18;8.30;94.40
61392;DHT22;47261;52.892;5.738;2022-09-29T03:07:44;8.30;94.50
61392;DHT22;47261;52.892;5.738;2022-09-29T03:10:11;8.30;94.40
61392;DHT22;47261;52.892;5.738;2022-09-29T03:12:37;8.30;94.50
61392;DHT22;47261;52.892;5.738;2022-09-29T03:15:03;8.20;94.50
61392;DHT22;47261;52.892;5.738;2022-09-29T03:17:29;8.20;94.50
61392;DHT22;47261;52.892;5.738;2022-09-29T03:19:56;8.20;94.50
61392;DHT22;47261;52.892;5.738;2022-09-29T03:22:22;8.20;94.60
61392;DHT22;47261;52.892;5.738;2022-09-29T03:24:48;8.20;94.60
61392;DHT22;47261;52.892;5.738;2022-09-29T03:27:14;8.20;94.60
61392;DHT22;47261;52.892;5.738;2022-09-29T03:29:39;8.20;94.60
61392;DHT22;47261;52.892;5.738;2022-09-29T03:32:05;8.10;94.50
61392;DHT22;47261;52.892;5.738;2022-09-29T03:34:32;8.10;94.50
61392;DHT22;47261;52.892;5.738;2022-09-29T03:36:58;8.10;94.50
61392;DHT22;47261;52.892;5.738;2022-09-29T03:39:24;8.10;94.50
61392;DHT22;47261;52.892;5.738;2022-09-29T03:41:50;8.10;94.60
61392;DHT22;47261;52.892;5.738;2022-09-29T03:44:16;8.10;94.70
61392;DHT22;47261;52.892;5.738;2022-09-29T03:46:42;8.10;94.70
61392;DHT22;47261;52.892;5.738;2022-09-29T03:49:11;8.10;94.70
61392;DHT22;47261;52.892;5.738;2022-09-29T03:51:37;8.10;94.70
61392;DHT22;47261;52.892;5.738;2022-09-29T03:54:03;8.10;94.70
61392;DHT22;47261;52.892;5.738;2022-09-29T03:56:29;8.10;94.70
61392;DHT22;47261;52.892;5.738;2022-09-29T03:58:55;8.10;94.80
61392;DHT22;47261;52.892;5.738;2022-09-29T04:01:21;8.10;94.80
61392;DHT22;47261;52.892;5.738;2022-09-29T04:03:46;8.10;94.80
61392;DHT22;47261;52.892;5.738;2022-09-29T04:06:12;8.20;94.80
61392;DHT22;47261;52.892;5.738;2022-09-29T04:08:38;8.10;94.80
61392;DHT22;47261;52.892;5.738;2022-09-29T04:11:04;8.10;94.90
61392;DHT22;47261;52.892;5.738;2022-09-29T04:13:30;8.20;94.90
61392;DHT22;47261;52.892;5.738;2022-09-29T04:16:03;8.20;94.90
61392;DHT22;47261;52.892;5.738;2022-09-29T04:18:29;8.20;95.00
61392;DHT22;47261;52.892;5.738;2022-09-29T04:20:56;8.20;95.00
61392;DHT22;47261;52.892;5.738;2022-09-29T04:23:25;8.30;95.00
61392;DHT22;47261;52.892;5.738;2022-09-29T04:25:51;8.30;95.00
61392;DHT22;47261;52.892;5.738;2022-09-29T04:28:17;8.30;95.00
61392;DHT22;47261;52.892;5.738;2022-09-29T04:30:42;8.30;95.00
61392;DHT22;47261;52.892;5.738;2022-09-29T04:33:08;8.30;94.90
61392;DHT22;47261;52.892;5.738;2022-09-29T04:35:34;8.30;94.90
61392;DHT22;47261;52.892;5.738;2022-09-29T04:38:00;8.30;94.90
61392;DHT22;47261;52.892;5.738;2022-09-29T04:40:26;8.30;94.90
61392;DHT22;47261;52.892;5.738;2022-09-29T04:42:52;8.30;94.80
61392;DHT22;47261;52.892;5.738;2022-09-29T04:45:17;8.20;94.80
61392;DHT22;47261;52.892;5.738;2022-09-29T04:47:43;8.20;94.80
61392;DHT22;47261;52.892;5.738;2022-09-29T04:50:09;8.20;94.80
61392;DHT22;47261;52.892;5.738;2022-09-29T04:52:35;8.10;94.80
61392;DHT22;47261;52.892;5.738;2022-09-29T04:55:03;8.10;94.80
61392;DHT22;47261;52.892;5.738;2022-09-29T04:57:29;8.10;94.80
61392;DHT22;47261;52.892;5.738;2022-09-29T04:59:55;8.00;94.80
61392;DHT22;47261;52.892;5.738;2022-09-29T05:02:21;8.00;94.80
61392;DHT22;47261;52.892;5.738;2022-09-29T05:04:46;7.90;94.70
61392;DHT22;47261;52.892;5.738;2022-09-29T05:07:13;7.90;94.80
61392;DHT22;47261;52.892;5.738;2022-09-29T05:09:38;7.80;94.70
61392;DHT22;47261;52.892;5.738;2022-09-29T05:12:04;7.80;94.80
61392;DHT22;47261;52.892;5.738;2022-09-29T05:14:30;7.80;94.70
61392;DHT22;47261;52.892;5.738;2022-09-29T05:16:56;7.70;94.70
61392;DHT22;47261;52.892;5.738;2022-09-29T05:19:22;7.70;94.70
61392;DHT22;47261;52.892;5.738;2022-09-29T05:21:48;7.70;94.80
61392;DHT22;47261;52.892;5.738;2022-09-29T05:24:14;7.60;94.80
61392;DHT22;47261;52.892;5.738;2022-09-29T05:26:40;7.60;94.90
61392;DHT22;47261;52.892;5.738;2022-09-29T05:29:05;7.60;94.90
61392;DHT22;47261;52.892;5.738;2022-09-29T05:31:31;7.70;94.90
61392;DHT22;47261;52.892;5.738;2022-09-29T05:33:57;7.60;94.90
61392;DHT22;47261;52.892;5.738;2022-09-29T05:36:23;7.60;94.90
61392;DHT22;47261;52.892;5.738;2022-09-29T05:38:49;7.50;94.80
61392;DHT22;47261;52.892;5.738;2022-09-29T05:41:15;7.50;94.70
61392;DHT22;47261;52.892;5.738;2022-09-29T05:43:50;7.50;94.70
61392;DHT22;47261;52.892;5.738;2022-09-29T05:46:18;7.40;94.70
61392;DHT22;47261;52.892;5.738;2022-09-29T05:48:48;7.40;94.70
61392;DHT22;47261;52.892;5.738;2022-09-29T05:51:15;7.40;94.70
61392;DHT22;47261;52.892;5.738;2022-09-29T05:53:42;7.40;94.80
61392;DHT22;47261;52.892;5.738;2022-09-29T05:56:11;7.30;94.70
61392;DHT22;47261;52.892;5.738;2022-09-29T05:58:37;7.30;94.70
61392;DHT22;47261;52.892;5.738;2022-09-29T06:01:08;7.30;94.70
61392;DHT22;47261;52.892;5.738;2022-09-29T06:03:34;7.20;94.60
61392;DHT22;47261;52.892;5.738;2022-09-29T06:06:10;7.20;94.60
61392;DHT22;47261;52.892;5.738;2022-09-29T06:08:37;7.20;95.00
61392;DHT22;47261;52.892;5.738;2022-09-29T06:11:07;7.30;94.90
61392;DHT22;47261;52.892;5.738;2022-09-29T06:13:36;7.30;95.00
61392;DHT22;47261;52.892;5.738;2022-09-29T06:16:01;7.30;94.90
61392;DHT22;47261;52.892;5.738;2022-09-29T06:18:27;7.40;95.00
61392;DHT22;47261;52.892;5.738;2022-09-29T06:20:53;7.40;95.00
61392;DHT22;47261;52.892;5.738;2022-09-29T06:23:24;7.40;95.00
61392;DHT22;47261;52.892;5.738;2022-09-29T06:25:55;7.40;95.00
61392;DHT22;47261;52.892;5.738;2022-09-29T06:28:20;7.50;95.00
61392;DHT22;47261;52.892;5.738;2022-09-29T06:30:46;7.50;95.00
61392;DHT22;47261;52.892;5.738;2022-09-29T06:33:12;7.50;95.00
61392;DHT22;47261;52.892;5.738;2022-09-29T06:35:37;7.60;95.00
61392;DHT22;47261;52.892;5.738;2022-09-29T06:38:21;7.60;95.00
61392;DHT22;47261;52.892;5.738;2022-09-29T06:40:47;7.70;94.90
61392;DHT22;47261;52.892;5.738;2022-09-29T06:43:12;7.70;95.00
61392;DHT22;47261;52.892;5.738;2022-09-29T06:45:38;7.80;95.00
61392;DHT22;47261;52.892;5.738;2022-09-29T06:48:04;7.80;95.00
61392;DHT22;47261;52.892;5.738;2022-09-29T06:50:30;7.90;95.00
61392;DHT22;47261;52.892;5.738;2022-09-29T06:52:56;8.00;95.10
61392;DHT22;47261;52.892;5.738;2022-09-29T06:55:21;8.10;95.20
61392;DHT22;47261;52.892;5.738;2022-09-29T06:57:47;8.20;95.50
61392;DHT22;47261;52.892;5.738;2022-09-29T07:00:12;8.30;95.20
61392;DHT22;47261;52.892;5.738;2022-09-29T07:02:38;8.40;95.30
61392;DHT22;47261;52.892;5.738;2022-09-29T07:05:04;8.60;95.30
61392;DHT22;47261;52.892;5.738;2022-09-29T07:07:30;8.70;95.40
61392;DHT22;47261;52.892;5.738;2022-09-29T07:09:55;8.80;95.40
61392;DHT22;47261;52.892;5.738;2022-09-29T07:12:21;8.90;95.30
61392;DHT22;47261;52.892;5.738;2022-09-29T07:14:47;9.00;95.30
61392;DHT22;47261;52.892;5.738;2022-09-29T07:17:12;9.10;95.40
61392;DHT22;47261;52.892;5.738;2022-09-29T07:19:39;9.20;95.40
61392;DHT22;47261;52.892;5.738;2022-09-29T07:22:04;9.30;95.30
61392;DHT22;47261;52.892;5.738;2022-09-29T07:24:31;9.30;95.30
61392;DHT22;47261;52.892;5.738;2022-09-29T07:26:56;9.40;95.30
61392;DHT22;47261;52.892;5.738;2022-09-29T07:29:22;9.50;95.30
61392;DHT22;47261;52.892;5.738;2022-09-29T07:31:48;9.50;95.20
61392;DHT22;47261;52.892;5.738;2022-09-29T07:34:16;9.50;95.20
61392;DHT22;47261;52.892;5.738;2022-09-29T07:36:41;9.60;95.40
61392;DHT22;47261;52.892;5.738;2022-09-29T07:39:07;9.60;95.10
61392;DHT22;47261;52.892;5.738;2022-09-29T07:41:33;9.60;95.10
61392;DHT22;47261;52.892;5.738;2022-09-29T07:43:58;9.60;95.10
61392;DHT22;47261;52.892;5.738;2022-09-29T07:46:24;9.70;95.10
61392;DHT22;47261;52.892;5.738;2022-09-29T07:48:50;9.70;95.10
61392;DHT22;47261;52.892;5.738;2022-09-29T07:51:18;9.80;95.20
61392;DHT22;47261;52.892;5.738;2022-09-29T07:53:44;9.90;95.20
61392;DHT22;47261;52.892;5.738;2022-09-29T07:56:10;10.00;95.30
61392;DHT22;47261;52.892;5.738;2022-09-29T07:58:37;10.10;95.30
61392;DHT22;47261;52.892;5.738;2022-09-29T08:01:05;10.20;95.40
61392;DHT22;47261;52.892;5.738;2022-09-29T08:03:35;10.30;95.40
61392;DHT22;47261;52.892;5.738;2022-09-29T08:06:00;10.40;95.50
61392;DHT22;47261;52.892;5.738;2022-09-29T08:08:26;10.50;95.50
61392;DHT22;47261;52.892;5.738;2022-09-29T08:11:09;10.60;95.50
61392;DHT22;47261;52.892;5.738;2022-09-29T08:13:35;10.70;95.60
61392;DHT22;47261;52.892;5.738;2022-09-29T08:16:04;10.90;95.60
61392;DHT22;47261;52.892;5.738;2022-09-29T08:18:31;11.00;95.70
61392;DHT22;47261;52.892;5.738;2022-09-29T08:20:57;11.20;95.70
61392;DHT22;47261;52.892;5.738;2022-09-29T08:23:23;11.30;95.70
61392;DHT22;47261;52.892;5.738;2022-09-29T08:26:02;11.50;95.70
61392;DHT22;47261;52.892;5.738;2022-09-29T08:28:33;11.60;95.70
61392;DHT22;47261;52.892;5.738;2022-09-29T08:31:03;11.70;95.60
61392;DHT22;47261;52.892;5.738;2022-09-29T08:33:29;11.90;95.60
61392;DHT22;47261;52.892;5.738;2022-09-29T08:35:56;12.10;95.60
61392;DHT22;47261;52.892;5.738;2022-09-29T08:38:23;12.20;95.60
61392;DHT22;47261;52.892;5.738;2022-09-29T08:40:49;12.30;95.50
61392;DHT22;47261;52.892;5.738;2022-09-29T08:43:38;12.40;95.50
61392;DHT22;47261;52.892;5.738;2022-09-29T08:48:41;12.60;95.50
61392;DHT22;47261;52.892;5.738;2022-09-29T08:51:30;12.70;95.40
61392;DHT22;47261;52.892;5.738;2022-09-29T08:54:01;12.90;95.40
61392;DHT22;47261;52.892;5.738;2022-09-29T08:56:28;13.00;95.30
61392;DHT22;47261;52.892;5.738;2022-09-29T08:58:53;13.10;95.20
61392;DHT22;47261;52.892;5.738;2022-09-29T09:17:54;14.20;94.40
61392;DHT22;47261;52.892;5.738;2022-09-29T09:20:32;14.40;94.10
61392;DHT22;47261;52.892;5.738;2022-09-29T09:23:19;14.70;94.00
61392;DHT22;47261;52.892;5.738;2022-09-29T09:25:56;15.00;93.80
61392;DHT22;47261;52.892;5.738;2022-09-29T09:28:33;15.20;93.00
61392;DHT22;47261;52.892;5.738;2022-09-29T09:34:06;15.70;92.10
61392;DHT22;47261;52.892;5.738;2022-09-29T09:36:42;15.90;91.70
61392;DHT22;47261;52.892;5.738;2022-09-29T09:39:16;16.10;91.30
61392;DHT22;47261;52.892;5.738;2022-09-29T09:41:46;16.30;91.10
61392;DHT22;47261;52.892;5.738;2022-09-29T09:49:41;16.50;86.70
61392;DHT22;47261;52.892;5.738;2022-09-29T09:52:26;16.70;87.10
61392;DHT22;47261;52.892;5.738;2022-09-29T09:55:00;16.80;86.30
61392;DHT22;47261;52.892;5.738;2022-09-29T10:02:36;17.20;84.30
61392;DHT22;47261;52.892;5.738;2022-09-29T10:05:03;17.40;83.40
61392;DHT22;47261;52.892;5.738;2022-09-29T10:07:29;17.50;83.10
61392;DHT22;47261;52.892;5.738;2022-09-29T10:09:55;17.60;82.10
61392;DHT22;47261;52.892;5.738;2022-09-29T10:12:23;17.60;80.20
61392;DHT22;47261;52.892;5.738;2022-09-29T10:15:11;17.70;80.30
61392;DHT22;47261;52.892;5.738;2022-09-29T10:17:42;17.70;79.70
61392;DHT22;47261;52.892;5.738;2022-09-29T10:20:09;17.70;80.40
61392;DHT22;47261;52.892;5.738;2022-09-29T10:22:35;17.70;79.60
61392;DHT22;47261;52.892;5.738;2022-09-29T10:25:15;17.80;79.60
61392;DHT22;47261;52.892;5.738;2022-09-29T10:27:48;17.80;79.20
61392;DHT22;47261;52.892;5.738;2022-09-29T10:30:32;17.80;79.20
61392;DHT22;47261;52.892;5.738;2022-09-29T10:33:00;17.70;77.90
61392;DHT22;47261;52.892;5.738;2022-09-29T10:35:38;17.70;78.10
61392;DHT22;47261;52.892;5.738;2022-09-29T10:38:07;17.60;78.00
61392;DHT22;47261;52.892;5.738;2022-09-29T10:40:56;17.50;78.40
61392;DHT22;47261;52.892;5.738;2022-09-29T10:43:35;17.40;78.20
61392;DHT22;47261;52.892;5.738;2022-09-29T10:46:03;17.30;78.10
61392;DHT22;47261;52.892;5.738;2022-09-29T10:48:29;17.20;77.60
61392;DHT22;47261;52.892;5.738;2022-09-29T10:51:02;17.20;78.40
61392;DHT22;47261;52.892;5.738;2022-09-29T10:53:37;17.10;78.90
61392;DHT22;47261;52.892;5.738;2022-09-29T10:56:22;17.00;78.80
61392;DHT22;47261;52.892;5.738;2022-09-29T10:58:59;16.90;78.80
61392;DHT22;47261;52.892;5.738;2022-09-29T11:01:27;16.90;78.30
61392;DHT22;47261;52.892;5.738;2022-09-29T11:03:56;16.80;77.60
61392;DHT22;47261;52.892;5.738;2022-09-29T11:06:37;16.70;77.70
61392;DHT22;47261;52.892;5.738;2022-09-29T11:09:08;16.60;78.20
61392;DHT22;47261;52.892;5.738;2022-09-29T11:11:55;16.60;79.10
61392;DHT22;47261;52.892;5.738;2022-09-29T11:19:50;16.40;78.30
61392;DHT22;47261;52.892;5.738;2022-09-29T11:25:35;16.40;78.70
61392;DHT22;47261;52.892;5.738;2022-09-29T11:38:34;16.20;79.70
61392;DHT22;47261;52.892;5.738;2022-09-29T11:47:05;16.20;79.20
61392;DHT22;47261;52.892;5.738;2022-09-29T11:50:02;16.20;79.00
61392;DHT22;47261;52.892;5.738;2022-09-29T11:52:59;16.20;79.00
61392;DHT22;47261;52.892;5.738;2022-09-29T12:00:49;16.10;75.10
61392;DHT22;47261;52.892;5.738;2022-09-29T12:03:45;16.10;74.20
61392;DHT22;47261;52.892;5.738;2022-09-29T12:06:33;16.10;74.30
61392;DHT22;47261;52.892;5.738;2022-09-29T12:09:25;16.10;73.90
61392;DHT22;47261;52.892;5.738;2022-09-29T12:12:36;16.20;74.00
61392;DHT22;47261;52.892;5.738;2022-09-29T12:17:20;16.30;70.80
61392;DHT22;47261;52.892;5.738;2022-09-29T12:19:59;16.30;71.40
61392;DHT22;47261;52.892;5.738;2022-09-29T12:22:26;16.40;71.70
61392;DHT22;47261;52.892;5.738;2022-09-29T12:24:55;16.40;70.20
61392;DHT22;47261;52.892;5.738;2022-09-29T12:27:41;16.50;71.00
61392;DHT22;47261;52.892;5.738;2022-09-29T12:30:29;16.50;70.80
61392;DHT22;47261;52.892;5.738;2022-09-29T12:36:19;16.60;69.70
61392;DHT22;47261;52.892;5.738;2022-09-29T12:42:02;17.10;71.80
61392;DHT22;47261;52.892;5.738;2022-09-29T12:44:39;17.30;70.20
61392;DHT22;47261;52.892;5.738;2022-09-29T12:47:18;17.50;69.30
61392;DHT22;47261;52.892;5.738;2022-09-29T12:50:04;17.60;68.70
61392;DHT22;47261;52.892;5.738;2022-09-29T12:55:17;17.90;68.30
61392;DHT22;47261;52.892;5.738;2022-09-29T12:57:46;17.90;66.00
61392;DHT22;47261;52.892;5.738;2022-09-29T13:00:15;18.00;65.80
61392;DHT22;47261;52.892;5.738;2022-09-29T13:11:01;18.00;66.70
61392;DHT22;47261;52.892;5.738;2022-09-29T13:27:20;17.90;66.40
61392;DHT22;47261;52.892;5.738;2022-09-29T13:30:11;17.80;66.40
61392;DHT22;47261;52.892;5.738;2022-09-29T13:32:57;17.70;66.00
61392;DHT22;47261;52.892;5.738;2022-09-29T13:35:25;17.70;65.40
61392;DHT22;47261;52.892;5.738;2022-09-29T13:37:52;17.70;65.60
61392;DHT22;47261;52.892;5.738;2022-09-29T13:40:27;17.80;66.90
61392;DHT22;47261;52.892;5.738;2022-09-29T13:42:55;17.80;67.40
61392;DHT22;47261;52.892;5.738;2022-09-29T13:47:54;17.80;67.80
61392;DHT22;47261;52.892;5.738;2022-09-29T14:01:08;17.40;70.30
61392;DHT22;47261;52.892;5.738;2022-09-29T14:03:39;17.50;71.00
61392;DHT22;47261;52.892;5.738;2022-09-29T14:06:06;17.50;71.20
61392;DHT22;47261;52.892;5.738;2022-09-29T14:08:39;17.70;71.10
61392;DHT22;47261;52.892;5.738;2022-09-29T14:11:19;17.70;70.40
61392;DHT22;47261;52.892;5.738;2022-09-29T14:14:01;17.80;71.60
61392;DHT22;47261;52.892;5.738;2022-09-29T14:21:56;18.00;71.10
61392;DHT22;47261;52.892;5.738;2022-09-29T14:29:43;17.90;70.50
61392;DHT22;47261;52.892;5.738;2022-09-29T14:32:19;17.80;70.80
61392;DHT22;47261;52.892;5.738;2022-09-29T14:34:46;17.70;71.40
61392;DHT22;47261;52.892;5.738;2022-09-29T14:37:17;17.60;71.10
61392;DHT22;47261;52.892;5.738;2022-09-29T14:39:45;17.60;72.60
61392;DHT22;47261;52.892;5.738;2022-09-29T14:42:32;17.50;73.10
61392;DHT22;47261;52.892;5.738;2022-09-29T14:44:58;17.50;73.10
61392;DHT22;47261;52.892;5.738;2022-09-29T14:47:49;17.60;73.70
61392;DHT22;47261;52.892;5.738;2022-09-29T14:50:51;17.60;73.50
61392;DHT22;47261;52.892;5.738;2022-09-29T14:54:10;17.50;72.20
61392;DHT22;47261;52.892;5.738;2022-09-29T14:56:57;17.60;71.80
61392;DHT22;47261;52.892;5.738;2022-09-29T15:02:17;17.40;71.00
61392;DHT22;47261;52.892;5.738;2022-09-29T15:04:44;17.30;71.30
61392;DHT22;47261;52.892;5.738;2022-09-29T15:07:12;17.30;71.40
61392;DHT22;47261;52.892;5.738;2022-09-29T15:09:38;17.20;71.50
61392;DHT22;47261;52.892;5.738;2022-09-29T15:12:14;17.20;71.80
61392;DHT22;47261;52.892;5.738;2022-09-29T15:14:40;17.10;70.70
61392;DHT22;47261;52.892;5.738;2022-09-29T15:17:41;17.10;70.60
61392;DHT22;47261;52.892;5.738;2022-09-29T15:20:26;17.10;70.20
61392;DHT22;47261;52.892;5.738;2022-09-29T15:26:00;16.90;70.30
61392;DHT22;47261;52.892;5.738;2022-09-29T15:28:36;16.90;70.30
61392;DHT22;47261;52.892;5.738;2022-09-29T15:31:08;16.80;70.40
61392;DHT22;47261;52.892;5.738;2022-09-29T15:33:36;16.70;70.60
61392;DHT22;47261;52.892;5.738;2022-09-29T15:36:05;16.70;70.90
61392;DHT22;47261;52.892;5.738;2022-09-29T15:38:37;16.70;71.10
61392;DHT22;47261;52.892;5.738;2022-09-29T15:41:15;16.70;70.90
61392;DHT22;47261;52.892;5.738;2022-09-29T15:43:50;16.60;70.80
61392;DHT22;47261;52.892;5.738;2022-09-29T15:46:22;16.60;71.20
61392;DHT22;47261;52.892;5.738;2022-09-29T15:51:36;16.50;71.80
61392;DHT22;47261;52.892;5.738;2022-09-29T15:54:03;16.40;72.10
61392;DHT22;47261;52.892;5.738;2022-09-29T15:56:33;16.40;72.40
61392;DHT22;47261;52.892;5.738;2022-09-29T15:59:19;16.40;72.30
61392;DHT22;47261;52.892;5.738;2022-09-29T16:01:45;16.40;72.30
61392;DHT22;47261;52.892;5.738;2022-09-29T16:04:11;16.40;72.50
61392;DHT22;47261;52.892;5.738;2022-09-29T16:06:42;16.30;72.60
61392;DHT22;47261;52.892;5.738;2022-09-29T16:09:16;16.30;72.90
61392;DHT22;47261;52.892;5.738;2022-09-29T16:11:43;16.20;73.10
61392;DHT22;47261;52.892;5.738;2022-09-29T16:14:22;16.10;73.40
61392;DHT22;47261;52.892;5.738;2022-09-29T16:16:52;16.10;73.70
61392;DHT22;47261;52.892;5.738;2022-09-29T16:19:28;15.90;73.80
61392;DHT22;47261;52.892;5.738;2022-09-29T16:21:57;15.80;74.00
61392;DHT22;47261;52.892;5.738;2022-09-29T16:24:36;15.80;74.30
61392;DHT22;47261;52.892;5.738;2022-09-29T16:27:40;15.60;74.60
61392;DHT22;47261;52.892;5.738;2022-09-29T16:30:29;15.60;75.20
61392;DHT22;47261;52.892;5.738;2022-09-29T16:33:11;15.50;75.50
61392;DHT22;47261;52.892;5.738;2022-09-29T16:35:44;15.40;75.70
61392;DHT22;47261;52.892;5.738;2022-09-29T16:40:51;15.30;76.30
61392;DHT22;47261;52.892;5.738;2022-09-29T16:43:27;15.10;76.40
61392;DHT22;47261;52.892;5.738;2022-09-29T16:45:56;15.10;76.80
61392;DHT22;47261;52.892;5.738;2022-09-29T16:48:25;15.00;76.90
61392;DHT22;47261;52.892;5.738;2022-09-29T16:50:55;14.80;77.10
61392;DHT22;47261;52.892;5.738;2022-09-29T16:53:33;14.80;77.50
61392;DHT22;47261;52.892;5.738;2022-09-29T16:56:10;14.60;77.80
61392;DHT22;47261;52.892;5.738;2022-09-29T16:58:43;14.50;78.00
61392;DHT22;47261;52.892;5.738;2022-09-29T17:01:10;14.50;78.10
61392;DHT22;47261;52.892;5.738;2022-09-29T17:03:37;14.30;78.20
61392;DHT22;47261;52.892;5.738;2022-09-29T17:06:03;14.30;78.40
61392;DHT22;47261;52.892;5.738;2022-09-29T17:08:30;14.20;78.60
61392;DHT22;47261;52.892;5.738;2022-09-29T17:10:57;14.10;78.80
61392;DHT22;47261;52.892;5.738;2022-09-29T17:13:23;14.00;79.10
61392;DHT22;47261;52.892;5.738;2022-09-29T17:15:51;13.90;79.40
61392;DHT22;47261;52.892;5.738;2022-09-29T17:18:19;13.80;79.70
61392;DHT22;47261;52.892;5.738;2022-09-29T17:20:45;13.70;80.00
61392;DHT22;47261;52.892;5.738;2022-09-29T17:23:11;13.60;80.10
61392;DHT22;47261;52.892;5.738;2022-09-29T17:25:39;13.60;80.30
61392;DHT22;47261;52.892;5.738;2022-09-29T17:28:16;13.50;80.60
61392;DHT22;47261;52.892;5.738;2022-09-29T17:30:44;13.40;81.00
61392;DHT22;47261;52.892;5.738;2022-09-29T17:33:12;13.30;81.00
61392;DHT22;47261;52.892;5.738;2022-09-29T17:35:42;13.30;81.40
61392;DHT22;47261;52.892;5.738;2022-09-29T17:38:09;13.20;81.60
61392;DHT22;47261;52.892;5.738;2022-09-29T17:43:04;13.10;82.20
61392;DHT22;47261;52.892;5.738;2022-09-29T17:45:30;13.10;82.30
61392;DHT22;47261;52.892;5.738;2022-09-29T17:47:58;13.00;82.60
61392;DHT22;47261;52.892;5.738;2022-09-29T17:50:33;13.00;82.90
61392;DHT22;47261;52.892;5.738;2022-09-29T17:53:03;13.00;83.20
61392;DHT22;47261;52.892;5.738;2022-09-29T17:55:30;13.00;83.30
61392;DHT22;47261;52.892;5.738;2022-09-29T17:57:56;12.90;83.50
61392;DHT22;47261;52.892;5.738;2022-09-29T18:00:26;12.90;83.60
61392;DHT22;47261;52.892;5.738;2022-09-29T18:02:52;12.90;83.90
61392;DHT22;47261;52.892;5.738;2022-09-29T18:05:27;12.80;83.90
61392;DHT22;47261;52.892;5.738;2022-09-29T18:07:54;12.80;84.20
61392;DHT22;47261;52.892;5.738;2022-09-29T18:12:52;12.80;84.80
61392;DHT22;47261;52.892;5.738;2022-09-29T18:15:17;12.70;85.60
61392;DHT22;47261;52.892;5.738;2022-09-29T18:17:44;12.70;85.50
61392;DHT22;47261;52.892;5.738;2022-09-29T18:20:13;12.70;85.80
61392;DHT22;47261;52.892;5.738;2022-09-29T18:22:40;12.70;86.10
61392;DHT22;47261;52.892;5.738;2022-09-29T18:25:06;12.70;86.20
61392;DHT22;47261;52.892;5.738;2022-09-29T18:27:32;12.80;86.50
61392;DHT22;47261;52.892;5.738;2022-09-29T18:29:58;12.80;86.70
61392;DHT22;47261;52.892;5.738;2022-09-29T18:32:23;12.80;86.90
61392;DHT22;47261;52.892;5.738;2022-09-29T18:34:49;12.80;87.00
61392;DHT22;47261;52.892;5.738;2022-09-29T18:37:15;12.80;87.00
61392;DHT22;47261;52.892;5.738;2022-09-29T18:39:41;12.80;87.10
61392;DHT22;47261;52.892;5.738;2022-09-29T18:42:08;12.80;87.40
61392;DHT22;47261;52.892;5.738;2022-09-29T18:44:33;12.80;87.70
61392;DHT22;47261;52.892;5.738;2022-09-29T18:47:01;12.80;87.80
61392;DHT22;47261;52.892;5.738;2022-09-29T18:49:27;12.80;88.60
61392;DHT22;47261;52.892;5.738;2022-09-29T18:51:52;12.80;88.30
61392;DHT22;47261;52.892;5.738;2022-09-29T18:54:18;12.80;88.50